sensor_id;sensor_type;location;lat;lon;timestamp;P1;durP1;ratioP1;P2;durP2;ratioP2
14300;SDS011;7234;59.306;18.024;2023-02-28T00:01:07;0.83;;;0.67;;
14300;SDS011;7234;59.306;18.024;2023-02-28T00:03:34;0.87;;;0.70;;
14300;SDS011;7234;59.306;18.024;2023-02-28T00:06:01;0.90;;;0.60;;
14300;SDS011;7234;59.306;18.024;2023-02-28T00:08:29;0.93;;;0.77;;
14300;SDS011;7234;59.306;18.024;2023-02-28T00:11:00;0.60;;;0.60;;
14300;SDS011;7234;59.306;18.024;2023-02-28T00:13:28;0.67;;;0.67;;
14300;SDS011;7234;59.306;18.024;2023-02-28T00:16:01;0.83;;;0.60;;
14300;SDS011;7234;59.306;18.024;2023-02-28T00:18:30;0.60;;;0.50;;
14300;SDS011;7234;59.306;18.024;2023-02-28T00:20:57;1.13;;;0.80;;
14300;SDS011;7234;59.306;18.024;2023-02-28T00:23:24;1.80;;;0.50;;
14300;SDS011;7234;59.306;18.024;2023-02-28T00:25:52;0.67;;;0.50;;
14300;SDS011;7234;59.306;18.024;2023-02-28T00:28:20;0.53;;;0.53;;
14300;SDS011;7234;59.306;18.024;2023-02-28T00:30:47;0.63;;;0.63;;
14300;SDS011;7234;59.306;18.024;2023-02-28T00:33:16;0.60;;;0.60;;
14300;SDS011;7234;59.306;18.024;2023-02-28T00:35:43;2.50;;;0.80;;
14300;SDS011;7234;59.306;18.024;2023-02-28T00:38:12;1.00;;;0.80;;
14300;SDS011;7234;59.306;18.024;2023-02-28T00:40:39;1.07;;;0.70;;
14300;SDS011;7234;59.306;18.024;2023-02-28T00:43:06;0.73;;;0.73;;
14300;SDS011;7234;59.306;18.024;2023-02-28T00:45:33;1.43;;;0.80;;
14300;SDS011;7234;59.306;18.024;2023-02-28T00:48:00;1.63;;;0.63;;
14300;SDS011;7234;59.306;18.024;2023-02-28T00:50:29;0.60;;;0.60;;
14300;SDS011;7234;59.306;18.024;2023-02-28T00:52:56;0.70;;;0.70;;
14300;SDS011;7234;59.306;18.024;2023-02-28T00:55:24;0.70;;;0.70;;
14300;SDS011;7234;59.306;18.024;2023-02-28T00:57:52;0.60;;;0.60;;
14300;SDS011;7234;59.306;18.024;2023-02-28T01:00:19;0.60;;;0.60;;
14300;SDS011;7234;59.306;18.024;2023-02-28T01:02:46;0.60;;;0.60;;
14300;SDS011;7234;59.306;18.024;2023-02-28T01:05:13;0.93;;;0.80;;
14300;SDS011;7234;59.306;18.024;2023-02-28T01:07:42;0.60;;;0.60;;
14300;SDS011;7234;59.306;18.024;2023-02-28T01:10:10;0.67;;;0.60;;
14300;SDS011;7234;59.306;18.024;2023-02-28T01:12:37;2.23;;;0.63;;
14300;SDS011;7234;59.306;18.024;2023-02-28T01:15:04;0.63;;;0.63;;
14300;SDS011;7234;59.306;18.024;2023-02-28T01:17:32;0.90;;;0.60;;
14300;SDS011;7234;59.306;18.024;2023-02-28T01:19:59;0.50;;;0.50;;
14300;SDS011;7234;59.306;18.024;2023-02-28T01:22:26;0.80;;;0.60;;
14300;SDS011;7234;59.306;18.024;2023-02-28T01:24:55;1.10;;;0.60;;
14300;SDS011;7234;59.306;18.024;2023-02-28T01:27:22;0.53;;;0.53;;
14300;SDS011;7234;59.306;18.024;2023-02-28T01:29:50;0.60;;;0.60;;
14300;SDS011;7234;59.306;18.024;2023-02-28T01:32:17;0.80;;;0.70;;
14300;SDS011;7234;59.306;18.024;2023-02-28T01:34:44;1.90;;;0.83;;
14300;SDS011;7234;59.306;18.024;2023-02-28T01:37:11;0.83;;;0.60;;
14300;SDS011;7234;59.306;18.024;2023-02-28T01:39:38;0.60;;;0.60;;
14300;SDS011;7234;59.306;18.024;2023-02-28T01:42:07;0.80;;;0.60;;
14300;SDS011;7234;59.306;18.024;2023-02-28T01:47:48;1.97;;;0.67;;
14300;SDS011;7234;59.306;18.024;2023-02-28T01:50:19;0.60;;;0.57;;
14300;SDS011;7234;59.306;18.024;2023-02-28T01:52:49;0.50;;;0.50;;
14300;SDS011;7234;59.306;18.024;2023-02-28T01:55:18;0.90;;;0.70;;
14300;SDS011;7234;59.306;18.024;2023-02-28T01:57:50;2.50;;;0.80;;
14300;SDS011;7234;59.306;18.024;2023-02-28T02:00:20;0.67;;;0.60;;
14300;SDS011;7234;59.306;18.024;2023-02-28T02:02:53;1.40;;;0.50;;
14300;SDS011;7234;59.306;18.024;2023-02-28T02:05:24;0.87;;;0.70;;
14300;SDS011;7234;59.306;18.024;2023-02-28T02:07:54;0.40;;;0.40;;
14300;SDS011;7234;59.306;18.024;2023-02-28T02:10:24;0.87;;;0.70;;
14300;SDS011;7234;59.306;18.024;2023-02-28T02:13:03;0.50;;;0.50;;
14300;SDS011;7234;59.306;18.024;2023-02-28T02:15:38;0.83;;;0.60;;
14300;SDS011;7234;59.306;18.024;2023-02-28T02:18:09;1.80;;;0.70;;
14300;SDS011;7234;59.306;18.024;2023-02-28T02:20:46;0.63;;;0.57;;
14300;SDS011;7234;59.306;18.024;2023-02-28T02:26:46;0.50;;;0.50;;
14300;SDS011;7234;59.306;18.024;2023-02-28T02:29:42;0.60;;;0.60;;
14300;SDS011;7234;59.306;18.024;2023-02-28T02:35:17;0.50;;;0.50;;
14300;SDS011;7234;59.306;18.024;2023-02-28T02:37:50;0.50;;;0.50;;
14300;SDS011;7234;59.306;18.024;2023-02-28T02:40:24;0.57;;;0.57;;
14300;SDS011;7234;59.306;18.024;2023-02-28T02:42:56;1.93;;;0.50;;
14300;SDS011;7234;59.306;18.024;2023-02-28T02:45:31;0.50;;;0.50;;
14300;SDS011;7234;59.306;18.024;2023-02-28T02:48:01;0.60;;;0.60;;
14300;SDS011;7234;59.306;18.024;2023-02-28T02:50:33;0.70;;;0.50;;
14300;SDS011;7234;59.306;18.024;2023-02-28T02:53:04;0.50;;;0.50;;
14300;SDS011;7234;59.306;18.024;2023-02-28T02:55:34;1.13;;;0.50;;
14300;SDS011;7234;59.306;18.024;2023-02-28T02:58:07;1.57;;;0.73;;
14300;SDS011;7234;59.306;18.024;2023-02-28T03:00:38;0.50;;;0.50;;
14300;SDS011;7234;59.306;18.024;2023-02-28T03:03:09;0.60;;;0.60;;
14300;SDS011;7234;59.306;18.024;2023-02-28T03:05:41;0.70;;;0.53;;
14300;SDS011;7234;59.306;18.024;2023-02-28T03:08:14;1.23;;;0.60;;
14300;SDS011;7234;59.306;18.024;2023-02-28T03:10:42;0.50;;;0.50;;
14300;SDS011;7234;59.306;18.024;2023-02-28T03:13:18;0.50;;;0.50;;
14300;SDS011;7234;59.306;18.024;2023-02-28T03:16:11;0.50;;;0.37;;
14300;SDS011;7234;59.306;18.024;2023-02-28T03:18:53;0.83;;;0.50;;
14300;SDS011;7234;59.306;18.024;2023-02-28T03:21:28;2.50;;;0.60;;
14300;SDS011;7234;59.306;18.024;2023-02-28T03:24:03;0.57;;;0.50;;
14300;SDS011;7234;59.306;18.024;2023-02-28T03:26:36;1.03;;;0.77;;
14300;SDS011;7234;59.306;18.024;2023-02-28T03:29:10;1.43;;;0.50;;
14300;SDS011;7234;59.306;18.024;2023-02-28T03:31:43;0.93;;;0.50;;
14300;SDS011;7234;59.306;18.024;2023-02-28T03:34:17;0.80;;;0.60;;
14300;SDS011;7234;59.306;18.024;2023-02-28T03:36:52;0.60;;;0.60;;
14300;SDS011;7234;59.306;18.024;2023-02-28T03:39:23;0.60;;;0.60;;
14300;SDS011;7234;59.306;18.024;2023-02-28T03:41:56;0.50;;;0.50;;
14300;SDS011;7234;59.306;18.024;2023-02-28T03:44:26;0.50;;;0.50;;
14300;SDS011;7234;59.306;18.024;2023-02-28T03:46:58;0.63;;;0.43;;
14300;SDS011;7234;59.306;18.024;2023-02-28T03:49:30;0.50;;;0.50;;
14300;SDS011;7234;59.306;18.024;2023-02-28T03:52:03;0.97;;;0.40;;
14300;SDS011;7234;59.306;18.024;2023-02-28T03:54:35;0.50;;;0.50;;
14300;SDS011;7234;59.306;18.024;2023-02-28T03:57:10;0.60;;;0.60;;
14300;SDS011;7234;59.306;18.024;2023-02-28T03:59:39;0.50;;;0.50;;
14300;SDS011;7234;59.306;18.024;2023-02-28T04:02:10;0.40;;;0.40;;
14300;SDS011;7234;59.306;18.024;2023-02-28T04:04:37;0.77;;;0.60;;
14300;SDS011;7234;59.306;18.024;2023-02-28T04:07:14;0.57;;;0.57;;
14300;SDS011;7234;59.306;18.024;2023-02-28T04:09:42;0.80;;;0.77;;
14300;SDS011;7234;59.306;18.024;2023-02-28T04:12:09;0.50;;;0.50;;
14300;SDS011;7234;59.306;18.024;2023-02-28T04:14:36;1.27;;;0.50;;
14300;SDS011;7234;59.306;18.024;2023-02-28T04:17:03;0.80;;;0.60;;
14300;SDS011;7234;59.306;18.024;2023-02-28T04:19:30;0.93;;;0.50;;
14300;SDS011;7234;59.306;18.024;2023-02-28T04:21:57;0.60;;;0.57;;
14300;SDS011;7234;59.306;18.024;2023-02-28T04:24:28;0.77;;;0.60;;
14300;SDS011;7234;59.306;18.024;2023-02-28T04:26:56;0.40;;;0.40;;
14300;SDS011;7234;59.306;18.024;2023-02-28T04:29:27;0.93;;;0.70;;
14300;SDS011;7234;59.306;18.024;2023-02-28T04:31:55;1.03;;;0.50;;
14300;SDS011;7234;59.306;18.024;2023-02-28T04:34:24;1.13;;;0.60;;
14300;SDS011;7234;59.306;18.024;2023-02-28T04:36:52;0.97;;;0.70;;
14300;SDS011;7234;59.306;18.024;2023-02-28T04:39:20;0.60;;;0.60;;
14300;SDS011;7234;59.306;18.024;2023-02-28T04:41:49;0.50;;;0.50;;
14300;SDS011;7234;59.306;18.024;2023-02-28T04:44:16;0.50;;;0.50;;
14300;SDS011;7234;59.306;18.024;2023-02-28T04:46:43;0.70;;;0.70;;
14300;SDS011;7234;59.306;18.024;2023-02-28T04:49:11;0.87;;;0.73;;
14300;SDS011;7234;59.306;18.024;2023-02-28T04:51:38;1.30;;;0.53;;
14300;SDS011;7234;59.306;18.024;2023-02-28T04:54:06;0.60;;;0.60;;
14300;SDS011;7234;59.306;18.024;2023-02-28T04:56:33;3.03;;;0.50;;
14300;SDS011;7234;59.306;18.024;2023-02-28T04:59:05;0.77;;;0.60;;
14300;SDS011;7234;59.306;18.024;2023-02-28T05:01:32;0.57;;;0.50;;
14300;SDS011;7234;59.306;18.024;2023-02-28T05:04:02;0.50;;;0.40;;
14300;SDS011;7234;59.306;18.024;2023-02-28T05:06:31;1.23;;;0.50;;
14300;SDS011;7234;59.306;18.024;2023-02-28T05:08:59;0.37;;;0.37;;
14300;SDS011;7234;59.306;18.024;2023-02-28T05:11:27;0.50;;;0.40;;
14300;SDS011;7234;59.306;18.024;2023-02-28T05:13:59;0.50;;;0.50;;
14300;SDS011;7234;59.306;18.024;2023-02-28T05:16:28;0.70;;;0.70;;
14300;SDS011;7234;59.306;18.024;2023-02-28T05:18:56;0.90;;;0.60;;
14300;SDS011;7234;59.306;18.024;2023-02-28T05:21:24;0.67;;;0.57;;
14300;SDS011;7234;59.306;18.024;2023-02-28T05:23:54;0.70;;;0.50;;
14300;SDS011;7234;59.306;18.024;2023-02-28T05:26:22;0.50;;;0.50;;
14300;SDS011;7234;59.306;18.024;2023-02-28T05:28:50;0.40;;;0.40;;
14300;SDS011;7234;59.306;18.024;2023-02-28T05:31:17;0.40;;;0.40;;
14300;SDS011;7234;59.306;18.024;2023-02-28T05:33:45;0.50;;;0.50;;
14300;SDS011;7234;59.306;18.024;2023-02-28T05:36:13;0.40;;;0.40;;
14300;SDS011;7234;59.306;18.024;2023-02-28T05:38:40;0.40;;;0.40;;
14300;SDS011;7234;59.306;18.024;2023-02-28T05:41:07;3.77;;;1.90;;
14300;SDS011;7234;59.306;18.024;2023-02-28T05:43:35;0.80;;;0.80;;
14300;SDS011;7234;59.306;18.024;2023-02-28T05:46:03;0.70;;;0.60;;
14300;SDS011;7234;59.306;18.024;2023-02-28T05:48:32;0.77;;;0.60;;
14300;SDS011;7234;59.306;18.024;2023-02-28T05:51:04;0.60;;;0.60;;
14300;SDS011;7234;59.306;18.024;2023-02-28T05:53:32;1.00;;;0.60;;
14300;SDS011;7234;59.306;18.024;2023-02-28T05:56:00;0.77;;;0.50;;
14300;SDS011;7234;59.306;18.024;2023-02-28T05:58:27;1.97;;;0.70;;
14300;SDS011;7234;59.306;18.024;2023-02-28T06:00:55;1.00;;;0.70;;
14300;SDS011;7234;59.306;18.024;2023-02-28T06:03:24;0.90;;;0.67;;
14300;SDS011;7234;59.306;18.024;2023-02-28T06:05:52;1.33;;;0.60;;
14300;SDS011;7234;59.306;18.024;2023-02-28T06:08:20;0.53;;;0.53;;
14300;SDS011;7234;59.306;18.024;2023-02-28T06:10:47;1.07;;;0.70;;
14300;SDS011;7234;59.306;18.024;2023-02-28T06:13:15;1.10;;;0.90;;
14300;SDS011;7234;59.306;18.024;2023-02-28T06:15:42;1.03;;;0.83;;
14300;SDS011;7234;59.306;18.024;2023-02-28T06:18:10;0.63;;;0.60;;
14300;SDS011;7234;59.306;18.024;2023-02-28T06:20:37;0.63;;;0.60;;
14300;SDS011;7234;59.306;18.024;2023-02-28T06:23:04;0.70;;;0.70;;
14300;SDS011;7234;59.306;18.024;2023-02-28T06:25:32;2.30;;;0.80;;
14300;SDS011;7234;59.306;18.024;2023-02-28T06:28:00;0.70;;;0.70;;
14300;SDS011;7234;59.306;18.024;2023-02-28T06:30:27;0.43;;;0.43;;
14300;SDS011;7234;59.306;18.024;2023-02-28T06:35:49;0.53;;;0.53;;
14300;SDS011;7234;59.306;18.024;2023-02-28T06:38:31;0.57;;;0.57;;
14300;SDS011;7234;59.306;18.024;2023-02-28T06:41:10;1.00;;;0.73;;
14300;SDS011;7234;59.306;18.024;2023-02-28T06:43:41;1.33;;;0.67;;
14300;SDS011;7234;59.306;18.024;2023-02-28T06:46:11;0.73;;;0.73;;
14300;SDS011;7234;59.306;18.024;2023-02-28T06:48:42;0.57;;;0.50;;
14300;SDS011;7234;59.306;18.024;2023-02-28T06:51:10;0.60;;;0.60;;
14300;SDS011;7234;59.306;18.024;2023-02-28T06:53:39;0.60;;;0.60;;
14300;SDS011;7234;59.306;18.024;2023-02-28T06:56:08;0.60;;;0.50;;
14300;SDS011;7234;59.306;18.024;2023-02-28T06:58:39;0.80;;;0.60;;
14300;SDS011;7234;59.306;18.024;2023-02-28T07:01:09;0.50;;;0.50;;
14300;SDS011;7234;59.306;18.024;2023-02-28T07:03:36;0.40;;;0.40;;
14300;SDS011;7234;59.306;18.024;2023-02-28T07:06:04;0.80;;;0.60;;
14300;SDS011;7234;59.306;18.024;2023-02-28T07:08:32;0.60;;;0.60;;
14300;SDS011;7234;59.306;18.024;2023-02-28T07:10:59;0.50;;;0.50;;
14300;SDS011;7234;59.306;18.024;2023-02-28T07:13:28;0.68;;;0.60;;
14300;SDS011;7234;59.306;18.024;2023-02-28T07:15:55;0.43;;;0.40;;
14300;SDS011;7234;59.306;18.024;2023-02-28T07:18:34;0.52;;;0.52;;
14300;SDS011;7234;59.306;18.024;2023-02-28T07:21:02;0.98;;;0.60;;
14300;SDS011;7234;59.306;18.024;2023-02-28T07:23:29;0.70;;;0.52;;
14300;SDS011;7234;59.306;18.024;2023-02-28T07:25:56;0.70;;;0.60;;
14300;SDS011;7234;59.306;18.024;2023-02-28T07:28:23;0.68;;;0.65;;
14300;SDS011;7234;59.306;18.024;2023-02-28T07:30:55;0.65;;;0.52;;
14300;SDS011;7234;59.306;18.024;2023-02-28T07:33:24;0.70;;;0.52;;
14300;SDS011;7234;59.306;18.024;2023-02-28T07:35:52;0.40;;;0.40;;
14300;SDS011;7234;59.306;18.024;2023-02-28T07:38:26;0.60;;;0.47;;
14300;SDS011;7234;59.306;18.024;2023-02-28T07:40:54;1.67;;;0.50;;
14300;SDS011;7234;59.306;18.024;2023-02-28T07:43:21;0.50;;;0.50;;
14300;SDS011;7234;59.306;18.024;2023-02-28T07:45:48;0.70;;;0.60;;
14300;SDS011;7234;59.306;18.024;2023-02-28T07:48:17;3.05;;;0.82;;
14300;SDS011;7234;59.306;18.024;2023-02-28T07:50:44;0.90;;;0.77;;
14300;SDS011;7234;59.306;18.024;2023-02-28T07:53:20;1.20;;;0.50;;
14300;SDS011;7234;59.306;18.024;2023-02-28T07:55:56;0.68;;;0.60;;
14300;SDS011;7234;59.306;18.024;2023-02-28T07:58:25;0.50;;;0.50;;
14300;SDS011;7234;59.306;18.024;2023-02-28T08:00:53;0.52;;;0.52;;
14300;SDS011;7234;59.306;18.024;2023-02-28T08:03:23;2.47;;;0.70;;
14300;SDS011;7234;59.306;18.024;2023-02-28T08:05:53;0.90;;;0.57;;
14300;SDS011;7234;59.306;18.024;2023-02-28T08:08:20;1.83;;;0.60;;
14300;SDS011;7234;59.306;18.024;2023-02-28T08:10:48;0.85;;;0.70;;
14300;SDS011;7234;59.306;18.024;2023-02-28T08:13:15;1.50;;;0.63;;
14300;SDS011;7234;59.306;18.024;2023-02-28T08:15:43;1.45;;;0.80;;
14300;SDS011;7234;59.306;18.024;2023-02-28T08:18:10;0.52;;;0.50;;
14300;SDS011;7234;59.306;18.024;2023-02-28T08:20:39;0.75;;;0.60;;
14300;SDS011;7234;59.306;18.024;2023-02-28T08:23:06;2.25;;;0.68;;
14300;SDS011;7234;59.306;18.024;2023-02-28T08:25:34;0.65;;;0.52;;
14300;SDS011;7234;59.306;18.024;2023-02-28T08:28:01;1.55;;;0.90;;
14300;SDS011;7234;59.306;18.024;2023-02-28T08:30:28;1.17;;;0.60;;
14300;SDS011;7234;59.306;18.024;2023-02-28T08:32:55;2.08;;;0.80;;
14300;SDS011;7234;59.306;18.024;2023-02-28T08:35:23;2.78;;;0.60;;
14300;SDS011;7234;59.306;18.024;2023-02-28T08:37:51;0.40;;;0.40;;
14300;SDS011;7234;59.306;18.024;2023-02-28T08:40:19;0.70;;;0.60;;
14300;SDS011;7234;59.306;18.024;2023-02-28T08:42:47;0.65;;;0.45;;
14300;SDS011;7234;59.306;18.024;2023-02-28T08:45:17;1.92;;;0.70;;
14300;SDS011;7234;59.306;18.024;2023-02-28T08:47:44;2.22;;;0.70;;
14300;SDS011;7234;59.306;18.024;2023-02-28T08:50:18;1.65;;;0.60;;
14300;SDS011;7234;59.306;18.024;2023-02-28T08:53:05;1.65;;;0.75;;
14300;SDS011;7234;59.306;18.024;2023-02-28T08:55:34;5.53;;;0.80;;
14300;SDS011;7234;59.306;18.024;2023-02-28T08:58:01;4.25;;;0.80;;
14300;SDS011;7234;59.306;18.024;2023-02-28T09:00:31;2.72;;;0.50;;
14300;SDS011;7234;59.306;18.024;2023-02-28T09:03:23;1.33;;;0.82;;
14300;SDS011;7234;59.306;18.024;2023-02-28T09:05:53;2.20;;;0.55;;
14300;SDS011;7234;59.306;18.024;2023-02-28T09:08:39;1.13;;;0.50;;
14300;SDS011;7234;59.306;18.024;2023-02-28T09:11:15;0.93;;;0.50;;
14300;SDS011;7234;59.306;18.024;2023-02-28T09:13:44;4.88;;;0.50;;
14300;SDS011;7234;59.306;18.024;2023-02-28T09:16:17;1.92;;;0.50;;
14300;SDS011;7234;59.306;18.024;2023-02-28T09:18:55;2.10;;;0.50;;
14300;SDS011;7234;59.306;18.024;2023-02-28T09:21:25;2.55;;;0.40;;
14300;SDS011;7234;59.306;18.024;2023-02-28T09:23:55;0.45;;;0.30;;
14300;SDS011;7234;59.306;18.024;2023-02-28T09:26:28;1.30;;;0.50;;
14300;SDS011;7234;59.306;18.024;2023-02-28T09:28:57;2.30;;;0.75;;
14300;SDS011;7234;59.306;18.024;2023-02-28T09:31:25;1.42;;;0.60;;
14300;SDS011;7234;59.306;18.024;2023-02-28T09:33:57;1.15;;;0.80;;
14300;SDS011;7234;59.306;18.024;2023-02-28T09:36:29;0.30;;;0.30;;
14300;SDS011;7234;59.306;18.024;2023-02-28T09:41:45;0.82;;;0.65;;
14300;SDS011;7234;59.306;18.024;2023-02-28T09:44:18;0.40;;;0.40;;
14300;SDS011;7234;59.306;18.024;2023-02-28T09:46:51;0.68;;;0.50;;
14300;SDS011;7234;59.306;18.024;2023-02-28T09:49:28;0.40;;;0.35;;
14300;SDS011;7234;59.306;18.024;2023-02-28T09:52:09;0.40;;;0.40;;
14300;SDS011;7234;59.306;18.024;2023-02-28T09:54:39;0.30;;;0.30;;
14300;SDS011;7234;59.306;18.024;2023-02-28T09:57:08;0.40;;;0.40;;
14300;SDS011;7234;59.306;18.024;2023-02-28T09:59:54;3.30;;;0.50;;
14300;SDS011;7234;59.306;18.024;2023-02-28T10:05:34;1.85;;;0.50;;
14300;SDS011;7234;59.306;18.024;2023-02-28T10:08:08;1.17;;;0.68;;
14300;SDS011;7234;59.306;18.024;2023-02-28T10:10:43;0.75;;;0.57;;
14300;SDS011;7234;59.306;18.024;2023-02-28T10:13:13;1.90;;;0.50;;
14300;SDS011;7234;59.306;18.024;2023-02-28T10:15:48;0.88;;;0.60;;
14300;SDS011;7234;59.306;18.024;2023-02-28T10:18:21;0.90;;;0.63;;
14300;SDS011;7234;59.306;18.024;2023-02-28T10:20:51;1.10;;;0.60;;
14300;SDS011;7234;59.306;18.024;2023-02-28T10:23:21;0.80;;;0.50;;
14300;SDS011;7234;59.306;18.024;2023-02-28T10:25:55;1.52;;;0.60;;
14300;SDS011;7234;59.306;18.024;2023-02-28T10:28:28;2.65;;;0.38;;
14300;SDS011;7234;59.306;18.024;2023-02-28T10:31:00;0.93;;;0.45;;
14300;SDS011;7234;59.306;18.024;2023-02-28T10:33:28;2.10;;;0.70;;
14300;SDS011;7234;59.306;18.024;2023-02-28T10:35:58;1.90;;;0.57;;
14300;SDS011;7234;59.306;18.024;2023-02-28T10:38:33;1.75;;;0.50;;
14300;SDS011;7234;59.306;18.024;2023-02-28T10:41:10;2.67;;;0.70;;
14300;SDS011;7234;59.306;18.024;2023-02-28T10:43:41;1.50;;;0.50;;
14300;SDS011;7234;59.306;18.024;2023-02-28T10:46:11;0.90;;;0.52;;
14300;SDS011;7234;59.306;18.024;2023-02-28T10:48:58;1.48;;;0.57;;
14300;SDS011;7234;59.306;18.024;2023-02-28T10:51:38;2.10;;;0.60;;
14300;SDS011;7234;59.306;18.024;2023-02-28T10:54:16;3.03;;;0.80;;
14300;SDS011;7234;59.306;18.024;2023-02-28T10:56:47;2.80;;;0.55;;
14300;SDS011;7234;59.306;18.024;2023-02-28T10:59:35;0.52;;;0.40;;
14300;SDS011;7234;59.306;18.024;2023-02-28T11:02:08;0.65;;;0.50;;
14300;SDS011;7234;59.306;18.024;2023-02-28T11:05:01;1.85;;;0.45;;
14300;SDS011;7234;59.306;18.024;2023-02-28T11:07:29;1.80;;;0.50;;
14300;SDS011;7234;59.306;18.024;2023-02-28T11:09:57;1.73;;;0.50;;
14300;SDS011;7234;59.306;18.024;2023-02-28T11:12:27;3.47;;;0.60;;
14300;SDS011;7234;59.306;18.024;2023-02-28T11:14:59;2.33;;;0.60;;
14300;SDS011;7234;59.306;18.024;2023-02-28T11:17:32;2.35;;;0.70;;
14300;SDS011;7234;59.306;18.024;2023-02-28T11:20:00;1.33;;;0.40;;
14300;SDS011;7234;59.306;18.024;2023-02-28T11:22:31;2.55;;;0.70;;
14300;SDS011;7234;59.306;18.024;2023-02-28T11:25:01;3.75;;;0.65;;
14300;SDS011;7234;59.306;18.024;2023-02-28T11:30:28;1.95;;;0.32;;
14300;SDS011;7234;59.306;18.024;2023-02-28T11:32:58;1.88;;;0.60;;
14300;SDS011;7234;59.306;18.024;2023-02-28T11:35:27;3.15;;;0.73;;
14300;SDS011;7234;59.306;18.024;2023-02-28T11:37:57;0.60;;;0.60;;
14300;SDS011;7234;59.306;18.024;2023-02-28T11:40:29;3.85;;;0.70;;
14300;SDS011;7234;59.306;18.024;2023-02-28T11:43:08;2.00;;;0.50;;
14300;SDS011;7234;59.306;18.024;2023-02-28T11:45:51;1.40;;;0.70;;
14300;SDS011;7234;59.306;18.024;2023-02-28T11:48:32;3.28;;;0.73;;
14300;SDS011;7234;59.306;18.024;2023-02-28T11:51:08;2.15;;;0.60;;
14300;SDS011;7234;59.306;18.024;2023-02-28T11:54:04;2.92;;;0.60;;
14300;SDS011;7234;59.306;18.024;2023-02-28T11:56:46;3.45;;;0.73;;
14300;SDS011;7234;59.306;18.024;2023-02-28T12:02:25;2.42;;;0.60;;
14300;SDS011;7234;59.306;18.024;2023-02-28T12:05:01;2.63;;;0.73;;
14300;SDS011;7234;59.306;18.024;2023-02-28T12:07:49;2.05;;;0.65;;
14300;SDS011;7234;59.306;18.024;2023-02-28T12:10:29;0.95;;;0.63;;
14300;SDS011;7234;59.306;18.024;2023-02-28T12:13:05;0.85;;;0.52;;
14300;SDS011;7234;59.306;18.024;2023-02-28T12:18:39;2.50;;;0.55;;
14300;SDS011;7234;59.306;18.024;2023-02-28T12:21:21;1.05;;;0.52;;
14300;SDS011;7234;59.306;18.024;2023-02-28T12:24:08;0.70;;;0.47;;
14300;SDS011;7234;59.306;18.024;2023-02-28T12:26:49;1.05;;;0.70;;
14300;SDS011;7234;59.306;18.024;2023-02-28T12:29:19;0.93;;;0.57;;
14300;SDS011;7234;59.306;18.024;2023-02-28T12:31:52;1.10;;;0.63;;
14300;SDS011;7234;59.306;18.024;2023-02-28T12:34:25;1.15;;;0.50;;
14300;SDS011;7234;59.306;18.024;2023-02-28T12:36:57;0.82;;;0.82;;
14300;SDS011;7234;59.306;18.024;2023-02-28T12:39:28;0.77;;;0.40;;
14300;SDS011;7234;59.306;18.024;2023-02-28T12:42:05;0.80;;;0.47;;
14300;SDS011;7234;59.306;18.024;2023-02-28T12:44:40;3.25;;;0.80;;
14300;SDS011;7234;59.306;18.024;2023-02-28T12:47:17;1.88;;;1.05;;
14300;SDS011;7234;59.306;18.024;2023-02-28T12:49:49;2.40;;;0.70;;
14300;SDS011;7234;59.306;18.024;2023-02-28T12:52:20;0.88;;;0.60;;
14300;SDS011;7234;59.306;18.024;2023-02-28T12:54:52;3.63;;;0.93;;
14300;SDS011;7234;59.306;18.024;2023-02-28T12:57:27;1.85;;;0.77;;
14300;SDS011;7234;59.306;18.024;2023-02-28T13:00:03;0.90;;;0.70;;
14300;SDS011;7234;59.306;18.024;2023-02-28T13:11:38;6.28;;;0.90;;
14300;SDS011;7234;59.306;18.024;2023-02-28T13:14:15;2.17;;;0.50;;
14300;SDS011;7234;59.306;18.024;2023-02-28T13:16:57;2.03;;;0.90;;
14300;SDS011;7234;59.306;18.024;2023-02-28T13:19:29;1.73;;;0.60;;
14300;SDS011;7234;59.306;18.024;2023-02-28T13:21:58;0.73;;;0.70;;
14300;SDS011;7234;59.306;18.024;2023-02-28T13:24:39;1.95;;;0.70;;
14300;SDS011;7234;59.306;18.024;2023-02-28T13:27:20;1.25;;;0.95;;
14300;SDS011;7234;59.306;18.024;2023-02-28T13:29:51;0.57;;;0.43;;
14300;SDS011;7234;59.306;18.024;2023-02-28T13:32:19;1.65;;;0.80;;
14300;SDS011;7234;59.306;18.024;2023-02-28T13:44:14;3.55;;;0.65;;
14300;SDS011;7234;59.306;18.024;2023-02-28T13:49:46;1.88;;;1.08;;
14300;SDS011;7234;59.306;18.024;2023-02-28T13:52:15;3.17;;;1.70;;
14300;SDS011;7234;59.306;18.024;2023-02-28T13:57:44;2.28;;;0.70;;
14300;SDS011;7234;59.306;18.024;2023-02-28T14:00:30;2.63;;;1.20;;
14300;SDS011;7234;59.306;18.024;2023-02-28T14:06:07;1.63;;;0.70;;
14300;SDS011;7234;59.306;18.024;2023-02-28T14:08:44;0.65;;;0.60;;
14300;SDS011;7234;59.306;18.024;2023-02-28T14:11:25;5.32;;;2.03;;
14300;SDS011;7234;59.306;18.024;2023-02-28T14:13:57;3.22;;;2.08;;
14300;SDS011;7234;59.306;18.024;2023-02-28T14:16:34;3.55;;;1.38;;
14300;SDS011;7234;59.306;18.024;2023-02-28T14:19:09;1.95;;;1.17;;
14300;SDS011;7234;59.306;18.024;2023-02-28T14:21:39;4.97;;;1.38;;
14300;SDS011;7234;59.306;18.024;2023-02-28T14:24:32;5.68;;;1.13;;
14300;SDS011;7234;59.306;18.024;2023-02-28T14:27:29;2.67;;;0.85;;
14300;SDS011;7234;59.306;18.024;2023-02-28T14:33:19;2.95;;;0.90;;
14300;SDS011;7234;59.306;18.024;2023-02-28T14:35:58;3.80;;;1.25;;
14300;SDS011;7234;59.306;18.024;2023-02-28T14:38:35;4.60;;;1.92;;
14300;SDS011;7234;59.306;18.024;2023-02-28T14:41:12;4.00;;;1.13;;
14300;SDS011;7234;59.306;18.024;2023-02-28T14:43:47;2.92;;;1.60;;
14300;SDS011;7234;59.306;18.024;2023-02-28T14:46:18;4.80;;;1.80;;
14300;SDS011;7234;59.306;18.024;2023-02-28T14:48:46;4.85;;;1.50;;
14300;SDS011;7234;59.306;18.024;2023-02-28T14:51:18;2.10;;;0.80;;
14300;SDS011;7234;59.306;18.024;2023-02-28T14:53:48;2.08;;;1.25;;
14300;SDS011;7234;59.306;18.024;2023-02-28T14:56:22;5.80;;;1.50;;
14300;SDS011;7234;59.306;18.024;2023-02-28T14:58:52;5.35;;;1.67;;
14300;SDS011;7234;59.306;18.024;2023-02-28T15:01:23;2.22;;;1.30;;
14300;SDS011;7234;59.306;18.024;2023-02-28T15:03:59;3.70;;;1.23;;
14300;SDS011;7234;59.306;18.024;2023-02-28T15:06:27;2.45;;;1.60;;
14300;SDS011;7234;59.306;18.024;2023-02-28T15:09:07;2.13;;;0.90;;
14300;SDS011;7234;59.306;18.024;2023-02-28T15:11:35;1.83;;;1.07;;
14300;SDS011;7234;59.306;18.024;2023-02-28T15:14:05;5.60;;;1.10;;
14300;SDS011;7234;59.306;18.024;2023-02-28T15:16:34;2.57;;;1.00;;
14300;SDS011;7234;59.306;18.024;2023-02-28T15:19:05;1.50;;;0.90;;
14300;SDS011;7234;59.306;18.024;2023-02-28T15:21:38;3.10;;;1.10;;
14300;SDS011;7234;59.306;18.024;2023-02-28T15:24:10;1.20;;;0.80;;
14300;SDS011;7234;59.306;18.024;2023-02-28T15:26:49;7.63;;;1.37;;
14300;SDS011;7234;59.306;18.024;2023-02-28T15:29:21;2.43;;;1.13;;
14300;SDS011;7234;59.306;18.024;2023-02-28T15:31:55;1.20;;;0.70;;
14300;SDS011;7234;59.306;18.024;2023-02-28T15:34:33;2.47;;;0.97;;
14300;SDS011;7234;59.306;18.024;2023-02-28T15:37:06;2.40;;;1.07;;
14300;SDS011;7234;59.306;18.024;2023-02-28T15:39:49;4.77;;;1.10;;
14300;SDS011;7234;59.306;18.024;2023-02-28T15:42:18;1.70;;;1.10;;
14300;SDS011;7234;59.306;18.024;2023-02-28T15:44:46;3.80;;;0.90;;
14300;SDS011;7234;59.306;18.024;2023-02-28T15:47:16;3.37;;;1.00;;
14300;SDS011;7234;59.306;18.024;2023-02-28T15:49:49;4.50;;;2.30;;
14300;SDS011;7234;59.306;18.024;2023-02-28T15:52:19;6.03;;;2.40;;
14300;SDS011;7234;59.306;18.024;2023-02-28T15:54:50;4.87;;;1.03;;
14300;SDS011;7234;59.306;18.024;2023-02-28T15:57:32;1.50;;;0.90;;
14300;SDS011;7234;59.306;18.024;2023-02-28T16:00:00;2.20;;;1.10;;
14300;SDS011;7234;59.306;18.024;2023-02-28T16:02:39;4.10;;;0.90;;
14300;SDS011;7234;59.306;18.024;2023-02-28T16:05:18;1.60;;;1.00;;
14300;SDS011;7234;59.306;18.024;2023-02-28T16:07:53;7.70;;;1.50;;
14300;SDS011;7234;59.306;18.024;2023-02-28T16:10:20;7.57;;;1.03;;
14300;SDS011;7234;59.306;18.024;2023-02-28T16:12:52;4.40;;;0.90;;